sensor_id;sensor_type;location;lat;lon;timestamp;pressure;altitude;pressure_sealevel;temperature;humidity
75438;BME280;64015;49.392;15.582;2022-12-28T00:00:24;96649.94;;;-1.11;100.00
75438;BME280;64015;49.392;15.582;2022-12-28T00:03:09;96645.50;;;-1.25;100.00
75438;BME280;64015;49.392;15.582;2022-12-28T00:05:35;96647.78;;;-1.22;100.00
75438;BME280;64015;49.392;15.582;2022-12-28T00:08:01;96645.22;;;-1.30;100.00
75438;BME280;64015;49.392;15.582;2022-12-28T00:10:26;96639.13;;;-0.92;100.00
75438;BME280;64015;49.392;15.582;2022-12-28T00:12:52;96653.63;;;-0.83;100.00
75438;BME280;64015;49.392;15.582;2022-12-28T00:15:18;96648.38;;;-0.74;100.00
75438;BME280;64015;49.392;15.582;2022-12-28T00:17:43;96639.69;;;-0.82;100.00
75438;BME280;64015;49.392;15.582;2022-12-28T00:20:10;96644.53;;;-0.79;100.00
75438;BME280;64015;49.392;15.582;2022-12-28T00:22:35;96642.81;;;-0.86;100.00
75438;BME280;64015;49.392;15.582;2022-12-28T00:25:01;96635.84;;;-0.86;100.00
75438;BME280;64015;49.392;15.582;2022-12-28T00:27:27;96637.63;;;-0.86;100.00
75438;BME280;64015;49.392;15.582;2022-12-28T00:29:52;96633.50;;;-0.95;100.00
75438;BME280;64015;49.392;15.582;2022-12-28T00:32:18;96635.22;;;-0.88;100.00
75438;BME280;64015;49.392;15.582;2022-12-28T00:34:44;96619.34;;;-0.85;100.00
75438;BME280;64015;49.392;15.582;2022-12-28T00:37:09;96631.91;;;-0.82;100.00
75438;BME280;64015;49.392;15.582;2022-12-28T00:39:35;96625.13;;;-0.83;100.00
75438;BME280;64015;49.392;15.582;2022-12-28T00:42:00;96629.06;;;-0.87;100.00
75438;BME280;64015;49.392;15.582;2022-12-28T00:44:26;96629.41;;;-0.90;100.00
75438;BME280;64015;49.392;15.582;2022-12-28T00:46:52;96625.59;;;-1.02;100.00
75438;BME280;64015;49.392;15.582;2022-12-28T00:49:18;96622.34;;;-0.96;100.00
75438;BME280;64015;49.392;15.582;2022-12-28T00:51:43;96625.31;;;-1.07;100.00
75438;BME280;64015;49.392;15.582;2022-12-28T00:54:09;96624.75;;;-1.17;100.00
75438;BME280;64015;49.392;15.582;2022-12-28T00:56:34;96608.69;;;-1.35;100.00
75438;BME280;64015;49.392;15.582;2022-12-28T00:59:00;96608.06;;;-1.37;100.00
75438;BME280;64015;49.392;15.582;2022-12-28T01:01:27;96615.75;;;-1.29;100.00
75438;BME280;64015;49.392;15.582;2022-12-28T01:03:56;96615.97;;;-1.31;100.00
75438;BME280;64015;49.392;15.582;2022-12-28T01:06:22;96604.97;;;-1.33;100.00
75438;BME280;64015;49.392;15.582;2022-12-28T01:08:48;96601.28;;;-1.16;100.00
75438;BME280;64015;49.392;15.582;2022-12-28T01:11:25;96605.38;;;-1.21;100.00
75438;BME280;64015;49.392;15.582;2022-12-28T01:13:54;96603.00;;;-1.08;100.00
75438;BME280;64015;49.392;15.582;2022-12-28T01:16:22;96590.13;;;-1.16;100.00
75438;BME280;64015;49.392;15.582;2022-12-28T01:18:51;96595.41;;;-1.09;100.00
75438;BME280;64015;49.392;15.582;2022-12-28T01:21:19;96592.44;;;-1.21;100.00
75438;BME280;64015;49.392;15.582;2022-12-28T01:23:46;96595.53;;;-1.26;100.00
75438;BME280;64015;49.392;15.582;2022-12-28T01:26:13;96587.66;;;-1.32;100.00
75438;BME280;64015;49.392;15.582;2022-12-28T01:28:40;96575.28;;;-1.45;100.00
75438;BME280;64015;49.392;15.582;2022-12-28T01:31:10;96584.72;;;-1.52;100.00
75438;BME280;64015;49.392;15.582;2022-12-28T01:33:37;96585.28;;;-1.65;100.00
75438;BME280;64015;49.392;15.582;2022-12-28T01:36:32;96580.34;;;-1.82;100.00
75438;BME280;64015;49.392;15.582;2022-12-28T01:39:02;96576.97;;;-1.83;100.00
75438;BME280;64015;49.392;15.582;2022-12-28T01:41:29;96573.94;;;-1.86;100.00
75438;BME280;64015;49.392;15.582;2022-12-28T01:46:21;96566.91;;;-2.09;100.00
75438;BME280;64015;49.392;15.582;2022-12-28T01:49:03;96570.38;;;-2.24;100.00
75438;BME280;64015;49.392;15.582;2022-12-28T01:51:33;96565.06;;;-2.31;100.00
75438;BME280;64015;49.392;15.582;2022-12-28T01:54:03;96564.09;;;-2.30;100.00
75438;BME280;64015;49.392;15.582;2022-12-28T01:56:30;96572.03;;;-2.40;100.00
75438;BME280;64015;49.392;15.582;2022-12-28T01:58:56;96557.56;;;-2.57;100.00
75438;BME280;64015;49.392;15.582;2022-12-28T02:01:23;96562.28;;;-2.60;100.00
75438;BME280;64015;49.392;15.582;2022-12-28T02:03:49;96561.59;;;-2.54;100.00
75438;BME280;64015;49.392;15.582;2022-12-28T02:06:15;96556.66;;;-2.72;100.00
75438;BME280;64015;49.392;15.582;2022-12-28T02:08:47;96563.44;;;-2.79;100.00
75438;BME280;64015;49.392;15.582;2022-12-28T02:11:16;96564.72;;;-2.75;100.00
75438;BME280;64015;49.392;15.582;2022-12-28T02:13:45;96557.91;;;-2.60;100.00
75438;BME280;64015;49.392;15.582;2022-12-28T02:16:11;96558.88;;;-2.61;100.00
75438;BME280;64015;49.392;15.582;2022-12-28T02:18:39;96550.84;;;-2.74;100.00
75438;BME280;64015;49.392;15.582;2022-12-28T02:29:45;96556.03;;;-2.90;100.00
75438;BME280;64015;49.392;15.582;2022-12-28T02:32:23;96560.56;;;-3.01;100.00
75438;BME280;64015;49.392;15.582;2022-12-28T02:37:24;96548.31;;;-2.98;100.00
75438;BME280;64015;49.392;15.582;2022-12-28T02:40:03;96542.50;;;-3.01;100.00
75438;BME280;64015;49.392;15.582;2022-12-28T02:42:30;96537.81;;;-3.05;100.00
75438;BME280;64015;49.392;15.582;2022-12-28T02:44:56;96543.78;;;-3.05;100.00
75438;BME280;64015;49.392;15.582;2022-12-28T02:47:42;96529.28;;;-3.14;100.00
75438;BME280;64015;49.392;15.582;2022-12-28T02:56:14;96526.38;;;-3.11;100.00
75438;BME280;64015;49.392;15.582;2022-12-28T02:59:07;96516.38;;;-3.14;100.00
75438;BME280;64015;49.392;15.582;2022-12-28T03:13:00;96482.75;;;-2.81;100.00
75438;BME280;64015;49.392;15.582;2022-12-28T03:15:26;96485.34;;;-2.81;100.00
75438;BME280;64015;49.392;15.582;2022-12-28T03:18:15;96481.00;;;-2.89;100.00
75438;BME280;64015;49.392;15.582;2022-12-28T03:21:02;96480.53;;;-2.92;100.00
75438;BME280;64015;49.392;15.582;2022-12-28T03:23:48;96465.00;;;-2.84;100.00
75438;BME280;64015;49.392;15.582;2022-12-28T03:26:38;96465.03;;;-2.92;100.00
75438;BME280;64015;49.392;15.582;2022-12-28T03:29:25;96459.56;;;-2.89;100.00
75438;BME280;64015;49.392;15.582;2022-12-28T03:32:12;96457.00;;;-2.97;100.00
75438;BME280;64015;49.392;15.582;2022-12-28T03:34:38;96449.63;;;-3.09;100.00
75438;BME280;64015;49.392;15.582;2022-12-28T03:37:16;96448.00;;;-3.10;100.00
75438;BME280;64015;49.392;15.582;2022-12-28T03:39:57;96445.91;;;-3.14;100.00
75438;BME280;64015;49.392;15.582;2022-12-28T03:42:28;96442.81;;;-3.02;100.00
75438;BME280;64015;49.392;15.582;2022-12-28T03:45:21;96446.94;;;-2.84;100.00
75438;BME280;64015;49.392;15.582;2022-12-28T03:47:50;96447.94;;;-2.93;100.00
75438;BME280;64015;49.392;15.582;2022-12-28T03:50:17;96441.53;;;-3.06;100.00
75438;BME280;64015;49.392;15.582;2022-12-28T03:52:44;96437.16;;;-3.05;100.00
75438;BME280;64015;49.392;15.582;2022-12-28T03:55:12;96429.97;;;-3.18;100.00
75438;BME280;64015;49.392;15.582;2022-12-28T03:57:38;96425.94;;;-3.20;100.00
75438;BME280;64015;49.392;15.582;2022-12-28T04:00:05;96440.28;;;-3.18;100.00
75438;BME280;64015;49.392;15.582;2022-12-28T04:02:31;96439.94;;;-3.07;100.00
75438;BME280;64015;49.392;15.582;2022-12-28T04:04:57;96429.63;;;-3.07;100.00
75438;BME280;64015;49.392;15.582;2022-12-28T04:07:23;96425.56;;;-3.01;100.00
75438;BME280;64015;49.392;15.582;2022-12-28T04:09:49;96423.47;;;-3.06;100.00
75438;BME280;64015;49.392;15.582;2022-12-28T04:12:15;96418.97;;;-3.12;100.00
75438;BME280;64015;49.392;15.582;2022-12-28T04:14:41;96419.28;;;-3.07;100.00
75438;BME280;64015;49.392;15.582;2022-12-28T04:17:06;96426.84;;;-2.97;100.00
75438;BME280;64015;49.392;15.582;2022-12-28T04:19:32;96423.47;;;-3.06;100.00
75438;BME280;64015;49.392;15.582;2022-12-28T04:21:57;96430.91;;;-3.11;100.00
75438;BME280;64015;49.392;15.582;2022-12-28T04:24:23;96434.16;;;-3.17;100.00
75438;BME280;64015;49.392;15.582;2022-12-28T04:26:49;96414.34;;;-3.24;100.00
75438;BME280;64015;49.392;15.582;2022-12-28T04:29:14;96428.28;;;-3.03;100.00
75438;BME280;64015;49.392;15.582;2022-12-28T04:31:40;96417.06;;;-3.18;100.00
75438;BME280;64015;49.392;15.582;2022-12-28T04:34:06;96416.31;;;-3.34;100.00
75438;BME280;64015;49.392;15.582;2022-12-28T04:36:32;96410.63;;;-3.30;100.00
75438;BME280;64015;49.392;15.582;2022-12-28T04:38:58;96408.72;;;-3.28;100.00
75438;BME280;64015;49.392;15.582;2022-12-28T04:41:24;96414.84;;;-3.37;100.00
75438;BME280;64015;49.392;15.582;2022-12-28T04:43:50;96412.56;;;-3.32;100.00
75438;BME280;64015;49.392;15.582;2022-12-28T04:46:18;96400.34;;;-3.38;100.00
75438;BME280;64015;49.392;15.582;2022-12-28T04:48:44;96414.19;;;-3.31;100.00
75438;BME280;64015;49.392;15.582;2022-12-28T04:53:40;96393.56;;;-3.39;100.00
75438;BME280;64015;49.392;15.582;2022-12-28T04:56:08;96404.69;;;-3.39;100.00
75438;BME280;64015;49.392;15.582;2022-12-28T04:58:34;96404.53;;;-3.37;100.00
75438;BME280;64015;49.392;15.582;2022-12-28T05:01:10;96402.28;;;-3.40;100.00
75438;BME280;64015;49.392;15.582;2022-12-28T05:03:37;96400.50;;;-3.40;100.00
75438;BME280;64015;49.392;15.582;2022-12-28T05:06:05;96398.72;;;-3.31;100.00
75438;BME280;64015;49.392;15.582;2022-12-28T05:08:35;96399.19;;;-3.27;100.00
75438;BME280;64015;49.392;15.582;2022-12-28T05:11:03;96395.97;;;-3.29;100.00
75438;BME280;64015;49.392;15.582;2022-12-28T05:13:29;96392.28;;;-3.35;100.00
75438;BME280;64015;49.392;15.582;2022-12-28T05:15:54;96385.19;;;-3.41;100.00
75438;BME280;64015;49.392;15.582;2022-12-28T05:18:20;96389.34;;;-3.32;100.00
75438;BME280;64015;49.392;15.582;2022-12-28T05:20:46;96380.00;;;-3.33;100.00
75438;BME280;64015;49.392;15.582;2022-12-28T05:23:11;96375.50;;;-3.31;100.00
75438;BME280;64015;49.392;15.582;2022-12-28T05:25:37;96378.88;;;-3.30;100.00
75438;BME280;64015;49.392;15.582;2022-12-28T05:28:03;96382.88;;;-3.20;100.00
75438;BME280;64015;49.392;15.582;2022-12-28T05:30:28;96388.00;;;-3.12;100.00
75438;BME280;64015;49.392;15.582;2022-12-28T05:32:54;96388.09;;;-2.89;100.00
75438;BME280;64015;49.392;15.582;2022-12-28T05:35:20;96377.28;;;-2.92;100.00
75438;BME280;64015;49.392;15.582;2022-12-28T05:37:46;96372.81;;;-2.98;100.00
75438;BME280;64015;49.392;15.582;2022-12-28T05:40:11;96371.19;;;-2.99;100.00
75438;BME280;64015;49.392;15.582;2022-12-28T05:42:37;96370.22;;;-2.98;100.00
75438;BME280;64015;49.392;15.582;2022-12-28T05:45:03;96376.34;;;-2.99;100.00
75438;BME280;64015;49.392;15.582;2022-12-28T05:47:28;96353.78;;;-3.06;100.00
75438;BME280;64015;49.392;15.582;2022-12-28T05:49:54;96361.69;;;-2.99;100.00
75438;BME280;64015;49.392;15.582;2022-12-28T05:52:20;96351.22;;;-3.06;100.00
75438;BME280;64015;49.392;15.582;2022-12-28T05:54:45;96352.50;;;-3.02;100.00
75438;BME280;64015;49.392;15.582;2022-12-28T05:57:11;96337.13;;;-2.95;100.00
75438;BME280;64015;49.392;15.582;2022-12-28T05:59:36;96338.28;;;-2.97;100.00
75438;BME280;64015;49.392;15.582;2022-12-28T06:02:02;96330.22;;;-3.03;100.00
75438;BME280;64015;49.392;15.582;2022-12-28T06:04:27;96331.16;;;-2.95;100.00
75438;BME280;64015;49.392;15.582;2022-12-28T06:06:53;96333.78;;;-3.04;100.00
75438;BME280;64015;49.392;15.582;2022-12-28T06:09:19;96335.28;;;-3.09;100.00
75438;BME280;64015;49.392;15.582;2022-12-28T06:11:45;96336.25;;;-3.10;100.00
75438;BME280;64015;49.392;15.582;2022-12-28T06:14:11;96337.97;;;-3.03;100.00
75438;BME280;64015;49.392;15.582;2022-12-28T06:16:39;96312.34;;;-3.04;100.00
75438;BME280;64015;49.392;15.582;2022-12-28T06:19:10;96305.63;;;-2.82;100.00
75438;BME280;64015;49.392;15.582;2022-12-28T06:21:38;96307.44;;;-2.68;100.00
75438;BME280;64015;49.392;15.582;2022-12-28T06:24:05;96313.56;;;-2.61;100.00
75438;BME280;64015;49.392;15.582;2022-12-28T06:26:33;96307.22;;;-2.58;100.00
75438;BME280;64015;49.392;15.582;2022-12-28T06:28:59;96312.38;;;-2.58;100.00
75438;BME280;64015;49.392;15.582;2022-12-28T06:31:31;96310.75;;;-2.51;100.00
75438;BME280;64015;49.392;15.582;2022-12-28T06:33:58;96308.47;;;-2.32;100.00
75438;BME280;64015;49.392;15.582;2022-12-28T06:36:29;96315.97;;;-1.84;100.00
75438;BME280;64015;49.392;15.582;2022-12-28T06:38:57;96323.50;;;-1.75;100.00
75438;BME280;64015;49.392;15.582;2022-12-28T06:41:24;96328.88;;;-1.47;100.00
75438;BME280;64015;49.392;15.582;2022-12-28T06:43:50;96329.84;;;-1.33;100.00
75438;BME280;64015;49.392;15.582;2022-12-28T06:46:18;96333.50;;;-1.28;100.00
75438;BME280;64015;49.392;15.582;2022-12-28T06:48:44;96341.72;;;-1.24;100.00
75438;BME280;64015;49.392;15.582;2022-12-28T06:51:16;96330.53;;;-1.10;100.00
75438;BME280;64015;49.392;15.582;2022-12-28T06:53:42;96329.75;;;-1.10;100.00
75438;BME280;64015;49.392;15.582;2022-12-28T06:58:43;96329.72;;;-0.96;100.00
75438;BME280;64015;49.392;15.582;2022-12-28T07:01:14;96319.38;;;-0.96;100.00
75438;BME280;64015;49.392;15.582;2022-12-28T07:03:42;96332.94;;;-0.94;100.00
75438;BME280;64015;49.392;15.582;2022-12-28T07:06:08;96329.91;;;-0.97;100.00
75438;BME280;64015;49.392;15.582;2022-12-28T07:08:34;96336.41;;;-0.87;100.00
75438;BME280;64015;49.392;15.582;2022-12-28T07:11:02;96338.97;;;-0.72;100.00
75438;BME280;64015;49.392;15.582;2022-12-28T07:13:28;96332.38;;;-0.74;100.00
75438;BME280;64015;49.392;15.582;2022-12-28T07:15:54;96327.09;;;-0.66;100.00
75438;BME280;64015;49.392;15.582;2022-12-28T07:18:19;96326.09;;;-0.65;100.00
75438;BME280;64015;49.392;15.582;2022-12-28T07:20:45;96325.34;;;-0.59;100.00
75438;BME280;64015;49.392;15.582;2022-12-28T07:23:10;96313.38;;;-0.60;100.00
75438;BME280;64015;49.392;15.582;2022-12-28T07:25:36;96302.41;;;-0.62;100.00
75438;BME280;64015;49.392;15.582;2022-12-28T07:28:02;96305.72;;;-0.68;100.00
75438;BME280;64015;49.392;15.582;2022-12-28T07:30:27;96315.59;;;-0.79;100.00
75438;BME280;64015;49.392;15.582;2022-12-28T07:32:53;96304.97;;;-0.84;100.00
75438;BME280;64015;49.392;15.582;2022-12-28T07:35:19;96310.44;;;-0.93;100.00
75438;BME280;64015;49.392;15.582;2022-12-28T07:37:44;96298.78;;;-1.04;100.00
75438;BME280;64015;49.392;15.582;2022-12-28T07:40:11;96301.66;;;-0.92;100.00
75438;BME280;64015;49.392;15.582;2022-12-28T07:42:36;96300.91;;;-0.93;100.00
75438;BME280;64015;49.392;15.582;2022-12-28T07:45:02;96284.50;;;-0.79;100.00
75438;BME280;64015;49.392;15.582;2022-12-28T07:47:27;96294.75;;;-0.70;100.00
75438;BME280;64015;49.392;15.582;2022-12-28T07:49:53;96289.94;;;-0.73;100.00
75438;BME280;64015;49.392;15.582;2022-12-28T07:52:19;96290.25;;;-0.62;100.00
75438;BME280;64015;49.392;15.582;2022-12-28T07:54:44;96284.41;;;-0.49;100.00
75438;BME280;64015;49.392;15.582;2022-12-28T07:57:10;96272.63;;;-0.52;100.00
75438;BME280;64015;49.392;15.582;2022-12-28T07:59:36;96288.22;;;-0.45;100.00
75438;BME280;64015;49.392;15.582;2022-12-28T08:02:01;96282.28;;;-0.60;100.00
75438;BME280;64015;49.392;15.582;2022-12-28T08:04:27;96294.91;;;-0.57;100.00
75438;BME280;64015;49.392;15.582;2022-12-28T08:06:53;96291.78;;;-0.46;100.00
75438;BME280;64015;49.392;15.582;2022-12-28T08:09:18;96300.78;;;-0.63;100.00
75438;BME280;64015;49.392;15.582;2022-12-28T08:11:44;96300.09;;;-0.93;100.00
75438;BME280;64015;49.392;15.582;2022-12-28T08:14:15;96309.03;;;-1.10;100.00
75438;BME280;64015;49.392;15.582;2022-12-28T08:16:49;96309.31;;;-1.20;100.00
75438;BME280;64015;49.392;15.582;2022-12-28T08:19:15;96306.94;;;-1.22;100.00
75438;BME280;64015;49.392;15.582;2022-12-28T08:21:44;96304.13;;;-1.20;100.00
75438;BME280;64015;49.392;15.582;2022-12-28T08:24:15;96297.00;;;-1.03;100.00
75438;BME280;64015;49.392;15.582;2022-12-28T08:26:42;96290.34;;;-0.91;100.00
75438;BME280;64015;49.392;15.582;2022-12-28T08:29:13;96297.34;;;-0.70;100.00
75438;BME280;64015;49.392;15.582;2022-12-28T08:31:41;96299.03;;;-0.42;100.00
75438;BME280;64015;49.392;15.582;2022-12-28T08:34:11;96296.00;;;-0.24;100.00
75438;BME280;64015;49.392;15.582;2022-12-28T08:36:37;96304.13;;;-0.06;100.00
75438;BME280;64015;49.392;15.582;2022-12-28T08:39:03;96295.50;;;0.15;100.00
75438;BME280;64015;49.392;15.582;2022-12-28T08:41:32;96305.03;;;0.36;100.00
75438;BME280;64015;49.392;15.582;2022-12-28T08:43:57;96302.53;;;0.56;100.00
75438;BME280;64015;49.392;15.582;2022-12-28T08:46:28;96299.25;;;0.75;100.00
75438;BME280;64015;49.392;15.582;2022-12-28T08:49:14;96308.78;;;1.09;100.00
75438;BME280;64015;49.392;15.582;2022-12-28T08:51:40;96309.88;;;1.34;100.00
75438;BME280;64015;49.392;15.582;2022-12-28T08:54:07;96306.13;;;1.63;97.68
75438;BME280;64015;49.392;15.582;2022-12-28T08:56:35;96302.16;;;1.74;97.81
75438;BME280;64015;49.392;15.582;2022-12-28T08:59:04;96298.16;;;1.91;96.28
75438;BME280;64015;49.392;15.582;2022-12-28T09:01:35;96291.53;;;1.95;96.89
75438;BME280;64015;49.392;15.582;2022-12-28T09:04:02;96294.53;;;1.85;95.52
75438;BME280;64015;49.392;15.582;2022-12-28T09:06:34;96294.53;;;1.79;96.15
75438;BME280;64015;49.392;15.582;2022-12-28T09:09:03;96294.16;;;1.75;96.07
75438;BME280;64015;49.392;15.582;2022-12-28T09:11:29;96298.56;;;1.75;96.23
75438;BME280;64015;49.392;15.582;2022-12-28T09:13:55;96285.16;;;1.71;95.96
75438;BME280;64015;49.392;15.582;2022-12-28T09:16:24;96289.16;;;1.74;97.06
75438;BME280;64015;49.392;15.582;2022-12-28T09:18:55;96282.97;;;1.75;96.36
75438;BME280;64015;49.392;15.582;2022-12-28T09:21:23;96281.53;;;1.79;95.80
75438;BME280;64015;49.392;15.582;2022-12-28T09:23:49;96278.34;;;1.77;95.83
75438;BME280;64015;49.392;15.582;2022-12-28T09:26:23;96273.75;;;1.79;94.89
75438;BME280;64015;49.392;15.582;2022-12-28T09:28:51;96272.53;;;1.88;95.88
75438;BME280;64015;49.392;15.582;2022-12-28T09:31:19;96288.78;;;2.03;94.31
75438;BME280;64015;49.392;15.582;2022-12-28T09:33:45;96281.72;;;2.23;93.81
75438;BME280;64015;49.392;15.582;2022-12-28T09:36:24;96274.91;;;2.36;93.77
75438;BME280;64015;49.392;15.582;2022-12-28T09:38:51;96281.69;;;2.56;92.90
75438;BME280;64015;49.392;15.582;2022-12-28T09:43:52;96265.13;;;2.95;92.19
75438;BME280;64015;49.392;15.582;2022-12-28T09:46:20;96260.25;;;3.12;89.27
75438;BME280;64015;49.392;15.582;2022-12-28T09:48:53;96244.97;;;3.16;88.91
75438;BME280;64015;49.392;15.582;2022-12-28T09:51:24;96243.53;;;3.26;89.07
75438;BME280;64015;49.392;15.582;2022-12-28T09:53:53;96244.06;;;3.35;88.95
75438;BME280;64015;49.392;15.582;2022-12-28T09:56:48;96240.94;;;3.58;87.79
75438;BME280;64015;49.392;15.582;2022-12-28T09:59:18;96248.88;;;3.69;86.70
75438;BME280;64015;49.392;15.582;2022-12-28T10:01:53;96245.75;;;3.86;85.51
75438;BME280;64015;49.392;15.582;2022-12-28T10:04:20;96237.75;;;4.05;84.88
75438;BME280;64015;49.392;15.582;2022-12-28T10:06:46;96224.25;;;4.08;83.59
75438;BME280;64015;49.392;15.582;2022-12-28T10:09:23;96225.63;;;4.11;82.81
75438;BME280;64015;49.392;15.582;2022-12-28T10:11:50;96221.88;;;4.07;82.75
75438;BME280;64015;49.392;15.582;2022-12-28T10:14:19;96221.00;;;4.13;83.40
75438;BME280;64015;49.392;15.582;2022-12-28T10:16:45;96227.94;;;4.26;82.61
75438;BME280;64015;49.392;15.582;2022-12-28T10:19:16;96219.00;;;4.15;81.86
75438;BME280;64015;49.392;15.582;2022-12-28T10:21:44;96215.63;;;4.08;82.77
75438;BME280;64015;49.392;15.582;2022-12-28T10:24:10;96206.03;;;4.02;82.38
75438;BME280;64015;49.392;15.582;2022-12-28T10:26:38;96210.44;;;4.26;82.79
75438;BME280;64015;49.392;15.582;2022-12-28T10:29:04;96204.94;;;4.34;81.97
75438;BME280;64015;49.392;15.582;2022-12-28T10:31:36;96199.25;;;4.19;81.73
75438;BME280;64015;49.392;15.582;2022-12-28T10:34:17;96198.53;;;4.12;82.79
75438;BME280;64015;49.392;15.582;2022-12-28T10:36:46;96197.47;;;3.95;83.92
75438;BME280;64015;49.392;15.582;2022-12-28T10:41:48;96183.50;;;3.89;83.17
75438;BME280;64015;49.392;15.582;2022-12-28T10:44:22;96177.19;;;3.97;83.31
75438;BME280;64015;49.392;15.582;2022-12-28T10:47:01;96171.28;;;4.26;81.97
75438;BME280;64015;49.392;15.582;2022-12-28T10:49:36;96164.72;;;4.72;79.85
75438;BME280;64015;49.392;15.582;2022-12-28T10:54:33;96156.69;;;4.85;79.03
75438;BME280;64015;49.392;15.582;2022-12-28T10:56:59;96145.91;;;4.81;79.42
75438;BME280;64015;49.392;15.582;2022-12-28T10:59:27;96148.81;;;4.55;80.47
75438;BME280;64015;49.392;15.582;2022-12-28T11:01:55;96144.78;;;4.41;81.55
75438;BME280;64015;49.392;15.582;2022-12-28T11:04:51;96142.19;;;4.04;82.36
75438;BME280;64015;49.392;15.582;2022-12-28T11:07:37;96150.00;;;4.23;81.87
75438;BME280;64015;49.392;15.582;2022-12-28T11:10:26;96151.09;;;4.33;81.37
75438;BME280;64015;49.392;15.582;2022-12-28T11:12:57;96150.09;;;4.53;81.26
75438;BME280;64015;49.392;15.582;2022-12-28T11:15:28;96131.47;;;5.20;78.64
75438;BME280;64015;49.392;15.582;2022-12-28T11:18:00;96127.31;;;5.54;76.93
75438;BME280;64015;49.392;15.582;2022-12-28T11:20:35;96115.38;;;5.93;73.58
75438;BME280;64015;49.392;15.582;2022-12-28T11:23:07;96111.97;;;5.70;72.29
75438;BME280;64015;49.392;15.582;2022-12-28T11:25:34;96102.75;;;5.44;72.54
75438;BME280;64015;49.392;15.582;2022-12-28T11:28:07;96099.84;;;5.22;73.48
75438;BME280;64015;49.392;15.582;2022-12-28T11:30:36;96100.47;;;4.94;75.26
75438;BME280;64015;49.392;15.582;2022-12-28T11:33:03;96103.44;;;4.98;75.90
75438;BME280;64015;49.392;15.582;2022-12-28T11:35:35;96103.75;;;5.66;73.25
75438;BME280;64015;49.392;15.582;2022-12-28T11:38:04;96099.19;;;6.60;68.77
75438;BME280;64015;49.392;15.582;2022-12-28T11:45:57;96090.34;;;6.49;68.40
75438;BME280;64015;49.392;15.582;2022-12-28T11:56:16;96077.00;;;7.96;62.54
75438;BME280;64015;49.392;15.582;2022-12-28T11:58:45;96076.91;;;7.36;64.77
75438;BME280;64015;49.392;15.582;2022-12-28T12:11:47;96057.69;;;5.88;73.24
75438;BME280;64015;49.392;15.582;2022-12-28T12:14:15;96055.97;;;5.71;73.25
75438;BME280;64015;49.392;15.582;2022-12-28T12:16:51;96062.34;;;5.51;74.64
75438;BME280;64015;49.392;15.582;2022-12-28T12:19:48;96066.75;;;5.04;76.34
75438;BME280;64015;49.392;15.582;2022-12-28T12:22:20;96067.44;;;5.11;77.19
75438;BME280;64015;49.392;15.582;2022-12-28T12:24:55;96064.94;;;5.16;76.29
75438;BME280;64015;49.392;15.582;2022-12-28T12:29:58;96061.13;;;5.54;74.99
75438;BME280;64015;49.392;15.582;2022-12-28T12:35:06;96048.69;;;5.96;73.15
75438;BME280;64015;49.392;15.582;2022-12-28T12:43:29;96034.78;;;8.68;60.46
75438;BME280;64015;49.392;15.582;2022-12-28T12:53:52;96029.56;;;9.37;56.71
75438;BME280;64015;49.392;15.582;2022-12-28T12:59:24;96028.50;;;8.47;59.90
75438;BME280;64015;49.392;15.582;2022-12-28T13:04:38;96025.75;;;7.94;62.87
75438;BME280;64015;49.392;15.582;2022-12-28T13:07:05;96024.22;;;7.98;62.28
75438;BME280;64015;49.392;15.582;2022-12-28T13:09:33;96015.91;;;8.28;61.79
75438;BME280;64015;49.392;15.582;2022-12-28T13:12:00;96007.16;;;8.97;59.34
75438;BME280;64015;49.392;15.582;2022-12-28T13:14:27;96005.69;;;9.12;57.82
75438;BME280;64015;49.392;15.582;2022-12-28T13:16:56;96012.47;;;9.03;57.92
75438;BME280;64015;49.392;15.582;2022-12-28T13:19:25;96010.63;;;9.03;57.28
75438;BME280;64015;49.392;15.582;2022-12-28T13:21:52;96015.25;;;9.23;57.82
75438;BME280;64015;49.392;15.582;2022-12-28T13:24:33;96008.81;;;8.77;58.14
75438;BME280;64015;49.392;15.582;2022-12-28T13:26:59;96006.53;;;8.85;58.88
75438;BME280;64015;49.392;15.582;2022-12-28T13:29:37;96004.09;;;9.95;56.14
75438;BME280;64015;49.392;15.582;2022-12-28T13:32:03;96005.69;;;9.96;54.76
75438;BME280;64015;49.392;15.582;2022-12-28T13:34:30;96004.81;;;10.47;52.29
75438;BME280;64015;49.392;15.582;2022-12-28T13:37:02;96006.22;;;10.85;51.49
75438;BME280;64015;49.392;15.582;2022-12-28T13:39:30;96000.16;;;11.36;49.25
75438;BME280;64015;49.392;15.582;2022-12-28T13:42:02;95997.50;;;11.41;48.91
75438;BME280;64015;49.392;15.582;2022-12-28T13:44:33;95991.72;;;11.29;49.24
75438;BME280;64015;49.392;15.582;2022-12-28T13:47:14;95988.03;;;11.14;50.24
75438;BME280;64015;49.392;15.582;2022-12-28T13:49:57;95987.75;;;11.16;49.06
75438;BME280;64015;49.392;15.582;2022-12-28T13:55:06;95978.47;;;10.58;51.24
75438;BME280;64015;49.392;15.582;2022-12-28T13:57:35;95980.06;;;10.54;50.89
75438;BME280;64015;49.392;15.582;2022-12-28T14:00:03;95973.75;;;10.65;51.49
75438;BME280;64015;49.392;15.582;2022-12-28T14:02:28;95974.25;;;10.46;51.92
75438;BME280;64015;49.392;15.582;2022-12-28T14:04:55;95967.69;;;9.92;52.97
75438;BME280;64015;49.392;15.582;2022-12-28T14:07:23;95972.66;;;10.35;52.14
75438;BME280;64015;49.392;15.582;2022-12-28T14:09:51;95969.38;;;10.13;51.70
75438;BME280;64015;49.392;15.582;2022-12-28T14:12:17;95971.88;;;9.78;53.29
75438;BME280;64015;49.392;15.582;2022-12-28T14:14:44;95958.47;;;9.32;55.07
75438;BME280;64015;49.392;15.582;2022-12-28T14:17:11;95958.06;;;9.13;55.54
75438;BME280;64015;49.392;15.582;2022-12-28T14:19:37;95961.72;;;8.75;56.93
75438;BME280;64015;49.392;15.582;2022-12-28T14:22:30;95961.75;;;8.48;58.13
75438;BME280;64015;49.392;15.582;2022-12-28T14:25:01;95966.59;;;8.35;59.59
75438;BME280;64015;49.392;15.582;2022-12-28T14:27:27;95962.44;;;8.17;59.71
75438;BME280;64015;49.392;15.582;2022-12-28T14:29:54;95969.91;;;8.03;60.39
75438;BME280;64015;49.392;15.582;2022-12-28T14:32:20;95972.88;;;7.46;62.35